createdAt,value
2023-09-13T00:04:35.092Z,99980.78
2023-09-13T00:09:42.242Z,99978.41
2023-09-13T00:14:44.359Z,99948.91
2023-09-13T00:19:46.445Z,99973.31
2023-09-13T00:24:48.567Z,99985.38
2023-09-13T00:29:50.647Z,99979.84
2023-09-13T00:34:52.693Z,99984.56
2023-09-13T00:39:54.892Z,99980.28
2023-09-13T00:44:57.075Z,99975.22
2023-09-13T00:50:00.493Z,99979.16
2023-09-13T00:55:05.694Z,99982.16
2023-09-13T01:00:12.309Z,99984.63
2023-09-13T01:05:16.221Z,99985.81
2023-09-13T01:10:19.865Z,99979.38
2023-09-13T01:15:24.199Z,99978.06
2023-09-13T01:21:07.188Z,99974.09
2023-09-13T01:27:06.727Z,99976.13
2023-09-13T01:32:08.908Z,99979.50
2023-09-13T01:37:11.076Z,99979.75
2023-09-13T01:42:14.556Z,99983.31
2023-09-13T01:47:18.697Z,99986.84
2023-09-13T01:52:21.055Z,99993.06
2023-09-13T01:57:23.143Z,99992.59
2023-09-13T02:02:25.392Z,99976.75
2023-09-13T02:07:27.534Z,99997.34
2023-09-13T02:12:29.584Z,99997.16
2023-09-13T02:17:33.689Z,100001.97
2023-09-13T02:22:35.819Z,99999.94
2023-09-13T02:27:39.282Z,100000.41
2023-09-13T02:32:42.283Z,100002.91
2023-09-13T02:37:44.550Z,100011.34
2023-09-13T02:42:46.835Z,100004.06
2023-09-13T02:47:48.992Z,100004.41
2023-09-13T02:52:51.652Z,99998.34
2023-09-13T02:57:56.828Z,100002.47
2023-09-13T03:02:59.540Z,99996.88
2023-09-13T03:08:02.353Z,99998.53
2023-09-13T03:13:05.033Z,99994.88
2023-09-13T03:18:07.525Z,99994.53
2023-09-13T03:23:09.728Z,99996.69
2023-09-13T03:28:12.229Z,100004.13
2023-09-13T03:33:14.512Z,99999.09
2023-09-13T03:38:17.844Z,100010.53
2023-09-13T03:43:20.185Z,100010.31
2023-09-13T03:48:23.021Z,100013.75
2023-09-13T03:53:26.123Z,100008.03
2023-09-13T03:58:28.633Z,100022.91
2023-09-13T04:03:31.565Z,100020.84
2023-09-13T04:08:33.730Z,100017.47
2023-09-13T04:13:36.078Z,100022.84
2023-09-13T04:18:38.976Z,100028.56
2023-09-13T04:23:41.167Z,100024.72
2023-09-13T04:28:43.297Z,100039.56
2023-09-13T04:33:49.882Z,100042.47
2023-09-13T04:38:54.230Z,100034.75
2023-09-13T04:43:56.526Z,100044.91
2023-09-13T04:48:58.738Z,100041.94
2023-09-13T04:54:02.111Z,100040.41
2023-09-13T04:59:05.838Z,100039.41
2023-09-13T05:04:08.450Z,100048.84
2023-09-13T05:09:10.725Z,100031.72
2023-09-13T05:14:14.238Z,100040.25
2023-09-13T05:19:16.350Z,100039.44
2023-09-13T05:24:18.762Z,100038.09
2023-09-13T05:29:20.954Z,100034.13
2023-09-13T05:34:23.107Z,100035.03
2023-09-13T05:39:27.613Z,100027.38
2023-09-13T05:44:29.785Z,100032.31
2023-09-13T05:49:32.037Z,100030.72
2023-09-13T05:54:34.243Z,100029.50
2023-09-13T05:59:40.983Z,100034.78
2023-09-13T06:04:43.383Z,100033.38
2023-09-13T06:09:45.617Z,100037.38
2023-09-13T06:14:48.078Z,100035.13
2023-09-13T06:19:51.313Z,100042.50
2023-09-13T06:24:53.608Z,100034.19
2023-09-13T06:29:55.744Z,100040.28
2023-09-13T06:34:59.442Z,100029.34
2023-09-13T06:40:02.268Z,100039.38
2023-09-13T06:50:15.729Z,100033.72
2023-09-13T06:55:19.034Z,100035.75
2023-09-13T07:00:30.820Z,100034.06
2023-09-13T07:05:38.520Z,100039.16
2023-09-13T07:10:40.595Z,100040.97
2023-09-13T07:15:42.679Z,100035.19
2023-09-13T07:20:44.803Z,100036.66
2023-09-13T07:25:49.515Z,100037.06
2023-09-13T07:30:51.823Z,100044.16
2023-09-13T07:35:53.965Z,100041.94
2023-09-13T07:40:56.086Z,100033.91
2023-09-13T07:45:58.249Z,100033.59
2023-09-13T07:51:00.310Z,100043.94
2023-09-13T07:56:03.918Z,100046.91
2023-09-13T08:01:06.264Z,100034.34
2023-09-13T08:06:08.404Z,100040.63
2023-09-13T08:11:10.840Z,100032.56
2023-09-13T08:16:14.096Z,100031.41
2023-09-13T08:21:16.258Z,100027.59
2023-09-13T08:26:28.007Z,100021.50
2023-09-13T08:31:30.726Z,100015.75
2023-09-13T08:36:34.755Z,100015.66
2023-09-13T08:41:37.056Z,100014.56
2023-09-13T08:46:39.894Z,100014.72
2023-09-13T08:51:42.872Z,100007.81
2023-09-13T08:56:46.954Z,100005.16
2023-09-13T09:01:51.708Z,100006.28
2023-09-13T09:06:54.469Z,99999.50
2023-09-13T09:12:01.025Z,99998.09
2023-09-13T09:17:04.206Z,99990.72
2023-09-13T09:22:09.290Z,99986.22
2023-09-13T09:27:13.648Z,99980.69
2023-09-13T09:32:16.313Z,99989.84
2023-09-13T09:37:19.357Z,99983.34
2023-09-13T09:42:21.391Z,99973.03
2023-09-13T09:47:23.533Z,99987.78
2023-09-13T09:52:25.666Z,99974.22
2023-09-13T09:57:27.834Z,99967.03
2023-09-13T10:02:30.374Z,99977.28
2023-09-13T10:07:42.290Z,99983.13
2023-09-13T10:12:46.030Z,99962.66
2023-09-13T10:17:49.859Z,99958.88
2023-09-13T10:22:55.831Z,99947.50
2023-09-13T10:28:02.559Z,99953.03
2023-09-13T10:33:07.941Z,99963.78
2023-09-13T10:38:16.532Z,99958.50
2023-09-13T10:43:21.833Z,99956.22
2023-09-13T10:48:25.704Z,99947.13
2023-09-13T10:53:28.559Z,99951.84
2023-09-13T10:58:32.809Z,99940.81
2023-09-13T11:03:35.095Z,99953.25
2023-09-13T11:08:37.889Z,99955.56
2023-09-13T11:13:40.122Z,99969.59
2023-09-13T11:18:58.476Z,99955.72
2023-09-13T11:24:04.340Z,99952.03
2023-09-13T11:29:26.158Z,99964.59
2023-09-13T11:34:29.058Z,99934.78
2023-09-13T11:39:31.812Z,99940.38
2023-09-13T11:44:34.586Z,99939.78
2023-09-13T11:49:43.118Z,99945.16
2023-09-13T11:55:05.348Z,99939.66
2023-09-13T12:00:16.654Z,99936.31
2023-09-13T12:05:29.992Z,99937.69
2023-09-13T12:10:40.892Z,99938.69
2023-09-13T12:16:04.332Z,99930.09
2023-09-13T12:21:08.467Z,99931.13
2023-09-13T12:26:12.796Z,99918.47
2023-09-13T12:31:16.179Z,99919.38
2023-09-13T12:36:19.036Z,99913.78
2023-09-13T12:41:22.801Z,99919.56
2023-09-13T12:46:28.291Z,99902.78
2023-09-13T12:51:34.695Z,99915.16
2023-09-13T12:56:38.805Z,99909.81
2023-09-13T13:01:41.345Z,99906.75
2023-09-13T13:06:59.113Z,99895.13
2023-09-13T13:12:01.539Z,99888.31
2023-09-13T13:17:03.819Z,99897.66
2023-09-13T13:22:11.757Z,99899.19
2023-09-13T13:27:14.397Z,99886.75
2023-09-13T13:32:17.699Z,99886.63
2023-09-13T13:37:20.068Z,99886.31
2023-09-13T13:42:22.215Z,99887.16
2023-09-13T13:47:42.828Z,99883.81
2023-09-13T13:52:45.003Z,99889.34
2023-09-13T13:57:47.169Z,99875.97
2023-09-13T14:02:51.127Z,99862.81
2023-09-13T14:07:53.243Z,99879.63
2023-09-13T14:12:58.101Z,99876.03
2023-09-13T14:18:00.382Z,99879.00
2023-09-13T14:23:02.883Z,99860.59
2023-09-13T14:28:10.663Z,99883.81
2023-09-13T14:33:18.058Z,99876.66
2023-09-13T14:38:21.983Z,99864.97
2023-09-13T14:43:24.076Z,99869.88
2023-09-13T14:48:26.482Z,99870.47
2023-09-13T14:53:28.742Z,99871.34
2023-09-13T14:58:33.538Z,99870.56
2023-09-13T15:03:39.171Z,99873.81
2023-09-13T15:08:49.627Z,99864.00
2023-09-13T15:13:51.862Z,99874.66
2023-09-13T15:18:58.042Z,99871.63
2023-09-13T15:24:03.586Z,99866.13
2023-09-13T15:29:05.834Z,99872.50
2023-09-13T15:34:11.573Z,99874.63
2023-09-13T15:39:13.939Z,99873.19
2023-09-13T15:44:21.851Z,99879.41
2023-09-13T15:49:26.555Z,99882.66
2023-09-13T15:54:28.703Z,99882.72
2023-09-13T15:59:33.606Z,99875.09
2023-09-13T16:04:35.845Z,99887.72
2023-09-13T16:09:37.992Z,99878.66
2023-09-13T16:14:40.437Z,99885.31
2023-09-13T16:19:42.720Z,99886.22
2023-09-13T16:24:45.218Z,99889.19
2023-09-13T16:29:47.461Z,99891.78
2023-09-13T16:34:49.733Z,99889.34
2023-09-13T16:39:52.183Z,99885.91
2023-09-13T16:44:54.349Z,99890.34
2023-09-13T16:49:56.605Z,99878.84
2023-09-13T16:54:58.878Z,99877.25
2023-09-13T17:00:01.120Z,99881.91
2023-09-13T17:05:04.963Z,99886.75
2023-09-13T17:10:07.525Z,99890.25
2023-09-13T17:15:10.044Z,99883.09
2023-09-13T17:20:12.412Z,99885.88
2023-09-13T17:25:14.442Z,99885.75
2023-09-13T17:30:16.563Z,99887.31
2023-09-13T17:35:18.769Z,99887.16
2023-09-13T17:40:21.114Z,99879.13
2023-09-13T17:45:23.348Z,99884.72
2023-09-13T17:50:25.468Z,99891.19
2023-09-13T17:55:27.674Z,99880.88
2023-09-13T18:00:30.178Z,99880.28
2023-09-13T18:05:32.402Z,99884.28
2023-09-13T18:10:34.667Z,99879.00
2023-09-13T18:15:36.922Z,99886.97
2023-09-13T18:20:40.287Z,99882.06
2023-09-13T18:25:42.476Z,99879.47
2023-09-13T18:30:44.632Z,99886.16
2023-09-13T18:35:46.840Z,99882.84
2023-09-13T18:40:49.018Z,99884.72
2023-09-13T18:46:01.244Z,99875.56
2023-09-13T18:51:04.880Z,99883.28
2023-09-13T18:56:07.206Z,99885.53
2023-09-13T19:01:09.726Z,99887.59
2023-09-13T19:06:13.327Z,99887.41
2023-09-13T19:11:15.746Z,99894.09
2023-09-13T19:16:17.966Z,99891.06
2023-09-13T19:21:20.261Z,99868.84
2023-09-13T19:26:23.408Z,99892.16
2023-09-13T19:31:26.547Z,99895.69
2023-09-13T19:36:28.791Z,99894.66
2023-09-13T19:41:30.973Z,99887.66
2023-09-13T19:46:33.214Z,99882.31
2023-09-13T19:51:35.396Z,99885.00
2023-09-13T19:56:37.579Z,99885.22
2023-09-13T20:01:39.708Z,99875.53
2023-09-13T20:06:42.269Z,99876.34
2023-09-13T20:11:44.855Z,99878.63
2023-09-13T20:16:46.945Z,99886.44
2023-09-13T20:21:49.113Z,99881.91
2023-09-13T20:26:51.904Z,99889.13
2023-09-13T20:31:54.128Z,99891.63
2023-09-13T20:36:56.297Z,99890.00
2023-09-13T20:41:58.401Z,99892.22
2023-09-13T20:47:00.999Z,99879.47
2023-09-13T20:52:03.572Z,99885.84
2023-09-13T20:57:08.648Z,99877.81
2023-09-13T21:02:10.771Z,99887.50
2023-09-13T21:07:12.885Z,99884.41
2023-09-13T21:12:15.054Z,99896.34
2023-09-13T21:17:17.153Z,99887.88
2023-09-13T21:22:19.263Z,99888.91
2023-09-13T21:27:22.036Z,99894.28
2023-09-13T21:32:24.349Z,99894.66
2023-09-13T21:37:26.571Z,99889.91
2023-09-13T21:42:28.882Z,99888.88
2023-09-13T21:47:31.084Z,99884.97
2023-09-13T21:52:33.185Z,99898.34
2023-09-13T21:57:39.266Z,99895.69
2023-09-13T22:02:41.477Z,99882.25
2023-09-13T22:07:45.037Z,99904.09
2023-09-13T22:12:47.271Z,99893.34
2023-09-13T22:17:51.416Z,99899.31
2023-09-13T22:22:53.771Z,99894.72
2023-09-13T22:27:55.893Z,99896.97
2023-09-13T22:32:58.050Z,99894.88
2023-09-13T22:38:00.214Z,99899.00
2023-09-13T22:43:03.056Z,99894.22
2023-09-13T22:48:07.342Z,99897.28
2023-09-13T22:53:09.559Z,99879.38
2023-09-13T22:58:11.639Z,99893.78
2023-09-13T23:03:14.563Z,99894.56
2023-09-13T23:08:17.645Z,99891.84
2023-09-13T23:13:19.730Z,99888.72
2023-09-13T23:18:23.204Z,99885.16
2023-09-13T23:23:26.464Z,99876.28
2023-09-13T23:28:28.595Z,99870.28
2023-09-13T23:33:30.808Z,99877.38
2023-09-13T23:38:33.658Z,99880.00
2023-09-13T23:43:37.019Z,99871.28
2023-09-13T23:48:41.168Z,99874.16
2023-09-13T23:53:50.100Z,99871.22
2023-09-13T23:58:54.923Z,99866.47
